Time;durP1;ratioP1;P1;durP2;ratioP2;P2;SDS_P1;SDS_P2;PMS_P1;PMS_P2;Temp;Humidity;BMP_temperature;BMP_pressure;BME280_temperature;BME280_humidity;BME280_pressure;Samples;Min_cycle;Max_cycle;Signal;HPM_P1;HPM_P2
2024/01/09 00:00:16;;;;;;;24.63;10.80;;;;;;;;;;2034484;29;20111;-57
2024/01/09 00:01:17;;;;;;;23.95;10.93;;;;;;;;;;2034442;29;20051;-57
2024/01/09 00:02:18;;;;;;;20.80;9.60;;;;;;;;;;2034448;29;20071;-57
2024/01/09 00:03:18;;;;;;;24.17;11.02;;;;;;;;;;2034490;29;20036;-57
2024/01/09 00:04:19;;;;;;;26.85;11.02;;;;;;;;;;2034545;29;20055;-58
2024/01/09 00:05:20;;;;;;;20.55;6.68;;;;;;;;;;2033771;29;20388;-57
2024/01/09 00:06:21;;;;;;;18.77;8.40;;;;;;;;;;2034268;29;20560;-57
2024/01/09 00:07:22;;;;;;;26.90;12.23;;;;;;;;;;2034391;29;20032;-57
2024/01/09 00:08:23;;;;;;;22.10;9.35;;;;;;;;;;2034366;29;20055;-57
2024/01/09 00:09:24;;;;;;;14.20;6.28;;;;;;;;;;2026028;29;20412;-57
2024/01/09 00:10:25;;;;;;;18.15;8.48;;;;;;;;;;2026014;29;20028;-57
2024/01/09 00:11:26;;;;;;;22.83;11.00;;;;;;;;;;2034328;29;20396;-58
2024/01/09 00:12:27;;;;;;;14.65;7.53;;;;;;;;;;2034509;29;20140;-57
2024/01/09 00:13:27;;;;;;;24.33;10.35;;;;;;;;;;2034487;29;20032;-57
2024/01/09 00:14:28;;;;;;;24.48;11.07;;;;;;;;;;2034741;29;20043;-57
2024/01/09 00:15:29;;;;;;;21.40;10.32;;;;;;;;;;2034054;29;20131;-57
2024/01/09 00:16:30;;;;;;;26.52;11.35;;;;;;;;;;2026315;29;20076;-57
2024/01/09 00:17:30;;;;;;;24.88;10.80;;;;;;;;;;2025992;29;20037;-57
2024/01/09 00:18:31;;;;;;;24.55;11.68;;;;;;;;;;2034324;29;20036;-57
2024/01/09 00:19:33;;;;;;;23.00;9.98;;;;;;;;;;2034276;29;20040;-57
2024/01/09 00:20:34;;;;;;;27.65;12.55;;;;;;;;;;2033625;29;20048;-57
2024/01/09 00:21:35;;;;;;;25.38;13.30;;;;;;;;;;2033861;29;20376;-58
2024/01/09 00:22:35;;;;;;;19.80;8.10;;;;;;;;;;2033924;29;20047;-57
2024/01/09 00:23:36;;;;;;;24.80;11.55;;;;;;;;;;2034021;29;20040;-58
2024/01/09 00:24:37;;;;;;;21.98;8.93;;;;;;;;;;2034458;29;20047;-57
2024/01/09 00:25:37;;;;;;;21.05;10.05;;;;;;;;;;2033803;29;20052;-57
2024/01/09 00:26:44;;;;;;;22.92;11.10;;;;;;;;;;2034174;29;20043;-57
2024/01/09 00:27:46;;;;;;;16.83;6.97;;;;;;;;;;2034028;29;20059;-58
2024/01/09 00:28:46;;;;;;;19.63;8.07;;;;;;;;;;2033489;29;20051;-57
2024/01/09 00:29:47;;;;;;;24.05;11.80;;;;;;;;;;2034257;29;20471;-57
2024/01/09 00:30:48;;;;;;;29.63;9.68;;;;;;;;;;2033874;29;20405;-57
2024/01/09 00:31:49;;;;;;;28.77;12.40;;;;;;;;;;2033973;29;20048;-57
2024/01/09 00:32:50;;;;;;;24.45;11.90;;;;;;;;;;2034266;29;20063;-57
2024/01/09 00:33:50;;;;;;;19.42;7.90;;;;;;;;;;2034110;29;20052;-58
2024/01/09 00:34:51;;;;;;;22.30;9.88;;;;;;;;;;2025795;29;20040;-57
2024/01/09 00:35:52;;;;;;;21.15;9.90;;;;;;;;;;2025717;29;20036;-57
2024/01/09 00:36:52;;;;;;;21.35;8.20;;;;;;;;;;2034032;29;20378;-57
2024/01/09 00:37:53;;;;;;;21.45;9.68;;;;;;;;;;2034447;29;20145;-58
2024/01/09 00:38:54;;;;;;;27.08;12.85;;;;;;;;;;2034181;29;20047;-57
2024/01/09 00:39:54;;;;;;;22.13;8.77;;;;;;;;;;2034408;29;20120;-57
2024/01/09 00:40:55;;;;;;;15.23;6.90;;;;;;;;;;2033896;29;20036;-57
2024/01/09 00:41:56;;;;;;;25.40;11.50;;;;;;;;;;2033669;29;20048;-57
2024/01/09 00:42:57;;;;;;;17.85;8.85;;;;;;;;;;2033645;29;20071;-57
2024/01/09 00:43:57;;;;;;;17.63;8.10;;;;;;;;;;2033715;29;20044;-57
2024/01/09 00:45:00;;;;;;;13.85;7.07;;;;;;;;;;2033977;29;20165;-57
2024/01/09 00:46:01;;;;;;;23.60;9.77;;;;;;;;;;2033648;29;20043;-57
2024/01/09 00:47:02;;;;;;;24.88;11.02;;;;;;;;;;2033829;29;20179;-57
2024/01/09 00:48:03;;;;;;;28.23;12.60;;;;;;;;;;2034159;29;20044;-57
2024/01/09 00:49:04;;;;;;;39.60;12.27;;;;;;;;;;2034003;29;20040;-58
2024/01/09 00:50:05;;;;;;;25.70;11.35;;;;;;;;;;2033611;29;20051;-57
2024/01/09 00:51:05;;;;;;;24.48;11.43;;;;;;;;;;2033808;29;20161;-57
2024/01/09 00:52:06;;;;;;;20.73;8.43;;;;;;;;;;2033930;29;20047;-57
2024/01/09 00:53:07;;;;;;;24.63;12.15;;;;;;;;;;2034111;29;20067;-57
2024/01/09 00:54:08;;;;;;;22.38;11.00;;;;;;;;;;2033337;29;20051;-57
2024/01/09 00:55:10;;;;;;;21.10;7.55;;;;;;;;;;2034305;29;20060;-57
2024/01/09 00:56:11;;;;;;;22.58;9.95;;;;;;;;;;2033538;29;20048;-58
2024/01/09 00:57:12;;;;;;;19.60;8.80;;;;;;;;;;2033670;29;20044;-57
2024/01/09 00:58:13;;;;;;;23.52;10.93;;;;;;;;;;2034195;29;20039;-57
2024/01/09 00:59:13;;;;;;;24.55;10.02;;;;;;;;;;2034068;29;20071;-57
2024/01/09 01:00:14;;;;;;;17.65;7.55;;;;;;;;;;2034086;29;20119;-57
2024/01/09 01:01:15;;;;;;;21.58;9.52;;;;;;;;;;2033668;29;20481;-57
2024/01/09 01:02:16;;;;;;;17.75;8.13;;;;;;;;;;2033931;29;20090;-57
2024/01/09 01:03:17;;;;;;;29.50;13.60;;;;;;;;;;2033941;29;20086;-58
2024/01/09 01:04:17;;;;;;;24.88;10.55;;;;;;;;;;2033332;29;20040;-57
2024/01/09 01:05:18;;;;;;;25.70;11.88;;;;;;;;;;2033700;29;20107;-57
2024/01/09 01:06:19;;;;;;;18.45;7.15;;;;;;;;;;2034070;29;20040;-57
2024/01/09 01:07:19;;;;;;;17.48;6.93;;;;;;;;;;2033849;29;20051;-57
2024/01/09 01:08:21;;;;;;;24.10;10.88;;;;;;;;;;2034088;29;20040;-57
2024/01/09 01:09:22;;;;;;;24.77;11.60;;;;;;;;;;2033858;29;20047;-57
2024/01/09 01:10:22;;;;;;;25.45;10.82;;;;;;;;;;2034010;29;20102;-57
2024/01/09 01:11:23;;;;;;;26.27;11.23;;;;;;;;;;2033890;29;20067;-57
2024/01/09 01:12:24;;;;;;;22.75;11.05;;;;;;;;;;2033970;29;20075;-57
2024/01/09 01:13:25;;;;;;;24.73;8.45;;;;;;;;;;2033830;29;20047;-57
2024/01/09 01:14:25;;;;;;;21.55;9.93;;;;;;;;;;2034191;29;20384;-57
2024/01/09 01:15:26;;;;;;;25.15;10.30;;;;;;;;;;2033191;29;20505;-57
2024/01/09 01:16:27;;;;;;;25.70;8.82;;;;;;;;;;2034014;29;20036;-57
2024/01/09 01:17:27;;;;;;;28.15;11.93;;;;;;;;;;2033732;29;20056;-57
2024/01/09 01:18:28;;;;;;;20.88;9.75;;;;;;;;;;2033833;29;20059;-57
2024/01/09 01:19:29;;;;;;;26.95;13.45;;;;;;;;;;2033887;29;20032;-57
2024/01/09 01:20:30;;;;;;;27.77;11.77;;;;;;;;;;2034003;29;20035;-57
2024/01/09 01:21:30;;;;;;;27.02;10.10;;;;;;;;;;2033876;29;20031;-57
2024/01/09 01:22:31;;;;;;;27.77;11.65;;;;;;;;;;2033838;29;20469;-57
2024/01/09 01:23:32;;;;;;;26.60;12.30;;;;;;;;;;2033887;29;20506;-57
2024/01/09 01:24:32;;;;;;;21.05;9.85;;;;;;;;;;2034212;29;20075;-57
2024/01/09 01:25:33;;;;;;;21.33;8.52;;;;;;;;;;2025460;29;20421;-57
2024/01/09 01:26:34;;;;;;;27.48;12.95;;;;;;;;;;2025602;29;20037;-57
2024/01/09 01:27:35;;;;;;;26.00;12.10;;;;;;;;;;2033473;29;20389;-57
2024/01/09 01:28:36;;;;;;;20.60;9.68;;;;;;;;;;2033630;29;20052;-57
2024/01/09 01:29:36;;;;;;;24.30;11.65;;;;;;;;;;2033864;29;20047;-57
2024/01/09 01:30:37;;;;;;;30.88;12.48;;;;;;;;;;2034107;29;20032;-56
2024/01/09 01:31:38;;;;;;;23.85;10.98;;;;;;;;;;2033923;29;20036;-57
2024/01/09 01:32:39;;;;;;;33.17;14.00;;;;;;;;;;2033868;29;20032;-57
2024/01/09 01:33:39;;;;;;;19.65;8.70;;;;;;;;;;2033919;29;20400;-57
2024/01/09 01:34:40;;;;;;;29.33;12.55;;;;;;;;;;2033970;29;20123;-57
2024/01/09 01:35:41;;;;;;;23.85;11.18;;;;;;;;;;2033465;29;20044;-57
2024/01/09 01:36:42;;;;;;;25.92;9.45;;;;;;;;;;2033862;29;20064;-57
2024/01/09 01:37:42;;;;;;;27.00;12.55;;;;;;;;;;2033812;29;20032;-57
2024/01/09 01:38:43;;;;;;;24.88;11.23;;;;;;;;;;2033839;29;20032;-57
2024/01/09 01:39:44;;;;;;;24.48;9.52;;;;;;;;;;2033980;29;20183;-57
2024/01/09 01:40:45;;;;;;;31.20;13.68;;;;;;;;;;2033734;29;20044;-57
2024/01/09 01:41:45;;;;;;;27.88;12.82;;;;;;;;;;2033946;29;20044;-57
2024/01/09 01:42:46;;;;;;;24.35;10.88;;;;;;;;;;2033884;29;20044;-57
2024/01/09 01:43:47;;;;;;;11.93;6.32;;;;;;;;;;2033749;29;20071;-57
2024/01/09 01:44:48;;;;;;;15.32;6.63;;;;;;;;;;2033726;29;20051;-57
2024/01/09 01:45:48;;;;;;;23.38;9.95;;;;;;;;;;2025553;29;20036;-57
2024/01/09 01:46:49;;;;;;;25.48;12.13;;;;;;;;;;2025325;29;20433;-57
2024/01/09 01:47:50;;;;;;;26.10;11.85;;;;;;;;;;2025472;29;20119;-57
2024/01/09 01:48:50;;;;;;;19.42;7.55;;;;;;;;;;2025147;29;20044;-57
2024/01/09 01:49:51;;;;;;;31.58;13.23;;;;;;;;;;2033960;29;20044;-57
2024/01/09 01:50:52;;;;;;;29.63;9.38;;;;;;;;;;2033727;29;20048;-61
2024/01/09 01:51:53;;;;;;;25.35;11.23;;;;;;;;;;2033407;29;20055;-57
2024/01/09 01:52:53;;;;;;;26.60;11.27;;;;;;;;;;2034176;29;20028;-57
2024/01/09 01:53:54;;;;;;;23.73;11.38;;;;;;;;;;2033709;29;20127;-56
2024/01/09 01:54:55;;;;;;;24.05;10.30;;;;;;;;;;2033515;29;20052;-56
2024/01/09 01:55:55;;;;;;;25.45;11.13;;;;;;;;;;2033858;29;20063;-57
2024/01/09 01:56:56;;;;;;;24.73;11.15;;;;;;;;;;2033819;29;20409;-56
2024/01/09 01:57:57;;;;;;;29.98;11.40;;;;;;;;;;2025877;29;20053;-57
2024/01/09 01:58:58;;;;;;;13.80;5.20;;;;;;;;;;2019053;29;20048;-56
2024/01/09 01:59:59;;;;;;;26.67;9.45;;;;;;;;;;2026886;29;20043;-57
2024/01/09 02:00:59;;;;;;;16.33;7.03;;;;;;;;;;2026849;29;20036;-56
2024/01/09 02:02:01;;;;;;;22.63;8.55;;;;;;;;;;2026856;29;20040;-57
2024/01/09 02:03:02;;;;;;;16.20;6.50;;;;;;;;;;2026589;29;20032;-57
2024/01/09 02:04:03;;;;;;;33.85;12.77;;;;;;;;;;2018407;29;20399;-57
2024/01/09 02:05:05;;;;;;;18.55;8.30;;;;;;;;;;2019160;29;20041;-56
2024/01/09 02:06:05;;;;;;;23.05;9.68;;;;;;;;;;2026991;29;20044;-57
2024/01/09 02:07:06;;;;;;;14.38;5.60;;;;;;;;;;2026949;29;20500;-57
2024/01/09 02:08:07;;;;;;;18.65;8.55;;;;;;;;;;2026810;29;20401;-57
2024/01/09 02:09:08;;;;;;;15.13;6.13;;;;;;;;;;2026903;29;20482;-57
2024/01/09 02:10:08;;;;;;;25.05;11.65;;;;;;;;;;2019063;29;20474;-57
2024/01/09 02:11:10;;;;;;;18.25;7.32;;;;;;;;;;2019007;29;20081;-57
2024/01/09 02:12:10;;;;;;;26.92;12.57;;;;;;;;;;2026809;29;20048;-57
2024/01/09 02:13:12;;;;;;;22.45;10.10;;;;;;;;;;2035240;29;20027;-57
2024/01/09 02:14:12;;;;;;;25.30;10.10;;;;;;;;;;2035108;29;20040;-56
2024/01/09 02:15:13;;;;;;;20.08;8.43;;;;;;;;;;2035173;29;20032;-57
2024/01/09 02:16:14;;;;;;;23.08;11.00;;;;;;;;;;2035180;29;20098;-57
2024/01/09 02:17:15;;;;;;;19.00;8.77;;;;;;;;;;2035535;29;20086;-56
2024/01/09 02:18:15;;;;;;;29.50;10.57;;;;;;;;;;2026512;29;20040;-57
2024/01/09 02:19:16;;;;;;;23.13;10.63;;;;;;;;;;2026866;29;20033;-57
2024/01/09 02:20:19;;;;;;;18.35;8.05;;;;;;;;;;2035364;29;20048;-57
2024/01/09 02:21:20;;;;;;;21.92;9.77;;;;;;;;;;2034820;29;20055;-57
2024/01/09 02:22:21;;;;;;;19.58;7.65;;;;;;;;;;2034520;29;20036;-57
2024/01/09 02:23:22;;;;;;;13.48;5.75;;;;;;;;;;2035022;29;20051;-57
2024/01/09 02:24:23;;;;;;;23.30;10.07;;;;;;;;;;2035333;29;20039;-62
2024/01/09 02:25:24;;;;;;;21.77;7.85;;;;;;;;;;2035224;29;20428;-57
2024/01/09 02:26:27;;;;;;;12.82;7.13;;;;;;;;;;2026677;29;20521;-56
2024/01/09 02:27:31;;;;;;;22.63;7.95;;;;;;;;;;2019221;29;20033;-56
2024/01/09 02:28:33;;;;;;;25.80;11.65;;;;;;;;;;2027193;29;20040;-57
2024/01/09 02:29:34;;;;;;;22.02;7.90;;;;;;;;;;2034441;29;20040;-57
2024/01/09 02:30:36;;;;;;;42.55;7.85;;;;;;;;;;2034251;29;20111;-57
2024/01/09 02:31:36;;;;;;;15.35;6.20;;;;;;;;;;2034454;29;20070;-57
2024/01/09 02:32:37;;;;;;;24.05;10.38;;;;;;;;;;2035107;29;20039;-57
2024/01/09 02:33:38;;;;;;;20.02;6.30;;;;;;;;;;2034974;29;20039;-57
2024/01/09 02:34:38;;;;;;;20.20;8.75;;;;;;;;;;2018331;29;20056;-56
2024/01/09 02:35:39;;;;;;;25.67;10.27;;;;;;;;;;2018751;29;20037;-57
2024/01/09 02:36:40;;;;;;;19.08;8.75;;;;;;;;;;2034894;29;20456;-57
2024/01/09 02:37:41;;;;;;;25.35;10.80;;;;;;;;;;2035055;29;20483;-57
2024/01/09 02:38:43;;;;;;;31.00;13.05;;;;;;;;;;2026727;29;20037;-57
2024/01/09 02:39:43;;;;;;;24.50;9.48;;;;;;;;;;2026961;29;20446;-57
2024/01/09 02:40:44;;;;;;;24.35;9.93;;;;;;;;;;2035021;29;20040;-56
2024/01/09 02:41:46;;;;;;;22.17;10.18;;;;;;;;;;2034673;29;20055;-57
2024/01/09 02:42:47;;;;;;;28.52;11.48;;;;;;;;;;2034941;29;20476;-57
2024/01/09 02:43:48;;;;;;;29.88;13.18;;;;;;;;;;2034921;29;20043;-56
2024/01/09 02:44:53;;;;;;;24.90;12.32;;;;;;;;;;2034876;29;20067;-57
2024/01/09 02:45:54;;;;;;;23.73;10.45;;;;;;;;;;2026736;29;20056;-57
2024/01/09 02:46:55;;;;;;;31.88;13.60;;;;;;;;;;2026102;29;20075;-56
2024/01/09 02:47:56;;;;;;;31.25;13.05;;;;;;;;;;2034829;29;20374;-57
2024/01/09 02:48:56;;;;;;;27.75;11.30;;;;;;;;;;2034891;29;20472;-56
2024/01/09 02:49:57;;;;;;;25.23;12.73;;;;;;;;;;2034616;29;20070;-57
2024/01/09 02:50:58;;;;;;;25.35;10.88;;;;;;;;;;2034728;29;20381;-57
2024/01/09 02:51:59;;;;;;;27.83;11.93;;;;;;;;;;2034056;29;20044;-57
2024/01/09 02:52:59;;;;;;;27.02;12.50;;;;;;;;;;2034404;29;20055;-57
2024/01/09 02:54:00;;;;;;;19.40;9.38;;;;;;;;;;2034915;29;20044;-57
2024/01/09 02:55:01;;;;;;;29.27;10.07;;;;;;;;;;2034990;29;20051;-57
2024/01/09 02:56:02;;;;;;;30.67;12.02;;;;;;;;;;2034866;29;20076;-57
2024/01/09 02:57:02;;;;;;;25.63;12.10;;;;;;;;;;2035218;29;20039;-57
2024/01/09 02:58:03;;;;;;;23.98;11.30;;;;;;;;;;2034632;29;20087;-57
2024/01/09 02:59:04;;;;;;;28.70;12.18;;;;;;;;;;2034830;29;20036;-57
2024/01/09 03:00:05;;;;;;;26.27;11.38;;;;;;;;;;2035118;29;20044;-57
2024/01/09 03:01:07;;;;;;;19.20;7.82;;;;;;;;;;2034258;29;20044;-57
2024/01/09 03:02:08;;;;;;;26.33;11.88;;;;;;;;;;2034928;29;20043;-57
2024/01/09 03:03:09;;;;;;;24.70;9.60;;;;;;;;;;2034554;29;20048;-60
2024/01/09 03:04:09;;;;;;;27.23;11.63;;;;;;;;;;2034045;29;20051;-58
2024/01/09 03:05:10;;;;;;;17.17;8.07;;;;;;;;;;2035596;29;20049;-56
2024/01/09 03:06:11;;;;;;;25.90;11.40;;;;;;;;;;2035900;29;20091;-57
2024/01/09 03:07:11;;;;;;;28.33;12.68;;;;;;;;;;2036251;29;20381;-58
2024/01/09 03:08:12;;;;;;;21.15;9.63;;;;;;;;;;2035451;29;20052;-57
2024/01/09 03:09:13;;;;;;;22.85;9.82;;;;;;;;;;2034915;29;20036;-56
2024/01/09 03:10:14;;;;;;;19.95;6.07;;;;;;;;;;2034496;29;20059;-57
2024/01/09 03:11:15;;;;;;;20.20;8.93;;;;;;;;;;2034758;29;20040;-56
2024/01/09 03:12:15;;;;;;;21.63;10.20;;;;;;;;;;2034806;29;20074;-58
2024/01/09 03:13:16;;;;;;;26.42;12.48;;;;;;;;;;2034244;29;20489;-57
2024/01/09 03:14:17;;;;;;;22.50;9.27;;;;;;;;;;2034660;29;20397;-57
2024/01/09 03:15:17;;;;;;;27.42;11.75;;;;;;;;;;2035004;29;20043;-56
2024/01/09 03:16:18;;;;;;;26.13;7.93;;;;;;;;;;2034911;29;20048;-57
2024/01/09 03:17:19;;;;;;;15.43;6.78;;;;;;;;;;2034726;29;20040;-57
2024/01/09 03:18:20;;;;;;;26.40;9.98;;;;;;;;;;2034116;29;20382;-57
2024/01/09 03:19:20;;;;;;;23.90;10.07;;;;;;;;;;2033991;29;20476;-56
2024/01/09 03:20:21;;;;;;;28.65;11.15;;;;;;;;;;2034803;29;20036;-57
2024/01/09 03:21:22;;;;;;;21.13;9.00;;;;;;;;;;2034752;29;20032;-56
2024/01/09 03:22:22;;;;;;;21.30;8.07;;;;;;;;;;2026267;29;20056;-56
2024/01/09 03:23:23;;;;;;;25.92;10.60;;;;;;;;;;2026191;29;20040;-56
2024/01/09 03:24:24;;;;;;;27.15;11.07;;;;;;;;;;2034724;29;20039;-57
2024/01/09 03:25:26;;;;;;;28.30;12.30;;;;;;;;;;2034738;29;20466;-56
2024/01/09 03:26:27;;;;;;;28.38;11.23;;;;;;;;;;2034070;29;20036;-57
2024/01/09 03:27:27;;;;;;;22.75;8.82;;;;;;;;;;2034442;29;20039;-57
2024/01/09 03:28:28;;;;;;;21.48;9.80;;;;;;;;;;2034344;29;20044;-57
2024/01/09 03:29:29;;;;;;;19.50;6.57;;;;;;;;;;2034417;29;20035;-56
2024/01/09 03:30:30;;;;;;;21.98;7.80;;;;;;;;;;2034673;29;20079;-56
2024/01/09 03:31:31;;;;;;;17.17;6.90;;;;;;;;;;2033659;29;20419;-57
2024/01/09 03:32:32;;;;;;;24.30;9.93;;;;;;;;;;2034661;29;20409;-57
2024/01/09 03:33:33;;;;;;;27.50;10.70;;;;;;;;;;2034551;29;20043;-57
2024/01/09 03:34:33;;;;;;;27.50;9.23;;;;;;;;;;2034675;29;20028;-57
2024/01/09 03:35:34;;;;;;;23.85;10.18;;;;;;;;;;2034504;29;20043;-57
2024/01/09 03:36:35;;;;;;;23.00;9.77;;;;;;;;;;2034177;29;20060;-57
2024/01/09 03:37:36;;;;;;;31.25;13.93;;;;;;;;;;2034797;29;20492;-57
2024/01/09 03:38:37;;;;;;;21.83;9.65;;;;;;;;;;2034208;29;20132;-57
2024/01/09 03:39:38;;;;;;;22.48;9.40;;;;;;;;;;2034527;29;20059;-57
2024/01/09 03:40:38;;;;;;;26.20;10.13;;;;;;;;;;2034756;29;20052;-57
2024/01/09 03:41:39;;;;;;;27.73;12.13;;;;;;;;;;2034562;29;20036;-57
2024/01/09 03:42:40;;;;;;;26.10;12.93;;;;;;;;;;2034504;29;20035;-57
2024/01/09 03:43:41;;;;;;;22.88;10.13;;;;;;;;;;2034551;29;20039;-57
2024/01/09 03:44:41;;;;;;;29.48;12.98;;;;;;;;;;2034517;29;20396;-57
2024/01/09 03:45:42;;;;;;;29.83;12.80;;;;;;;;;;2034714;29;20068;-57
2024/01/09 03:46:43;;;;;;;19.55;7.45;;;;;;;;;;2034463;29;20048;-56
2024/01/09 03:47:44;;;;;;;17.02;6.68;;;;;;;;;;2034500;29;20095;-57
2024/01/09 03:48:44;;;;;;;22.40;9.02;;;;;;;;;;2034555;29;20036;-56
2024/01/09 03:49:45;;;;;;;23.45;9.15;;;;;;;;;;2034472;29;20055;-57
2024/01/09 03:50:46;;;;;;;22.17;9.65;;;;;;;;;;2034421;29;20052;-57
2024/01/09 03:51:46;;;;;;;24.40;11.15;;;;;;;;;;2034418;29;20429;-57
2024/01/09 03:52:47;;;;;;;18.50;8.65;;;;;;;;;;2034748;29;20040;-57
2024/01/09 03:53:48;;;;;;;20.17;7.72;;;;;;;;;;2034202;29;20047;-57
2024/01/09 03:54:49;;;;;;;29.10;12.95;;;;;;;;;;2034101;29;20040;-57
2024/01/09 03:55:49;;;;;;;22.77;9.05;;;;;;;;;;2034652;29;20035;-56
2024/01/09 03:56:50;;;;;;;26.92;11.43;;;;;;;;;;2034416;29;20040;-57
2024/01/09 03:57:51;;;;;;;24.00;10.30;;;;;;;;;;2034354;29;20058;-58
2024/01/09 03:58:52;;;;;;;16.25;7.35;;;;;;;;;;2034411;29;20389;-57
2024/01/09 03:59:53;;;;;;;16.30;6.65;;;;;;;;;;2034573;29;20050;-57
2024/01/09 04:00:53;;;;;;;29.52;13.25;;;;;;;;;;2033995;29;20055;-57
2024/01/09 04:01:54;;;;;;;23.90;10.90;;;;;;;;;;2034080;29;20047;-57
2024/01/09 04:02:55;;;;;;;22.85;10.57;;;;;;;;;;2033777;29;20500;-57
2024/01/09 04:03:58;;;;;;;22.20;9.55;;;;;;;;;;2034132;29;20083;-57
2024/01/09 04:04:59;;;;;;;22.40;9.25;;;;;;;;;;2033727;29;20052;-57
2024/01/09 04:06:01;;;;;;;22.50;9.80;;;;;;;;;;2034554;29;20047;-57
2024/01/09 04:07:02;;;;;;;18.27;8.27;;;;;;;;;;2034265;29;20050;-57
2024/01/09 04:08:03;;;;;;;28.75;12.10;;;;;;;;;;2034382;29;20411;-57
2024/01/09 04:09:04;;;;;;;16.85;7.10;;;;;;;;;;2034437;29;20477;-57
2024/01/09 04:10:04;;;;;;;23.17;9.60;;;;;;;;;;2034455;29;20353;-57
2024/01/09 04:11:05;;;;;;;18.00;7.70;;;;;;;;;;2034422;29;20537;-57
2024/01/09 04:12:06;;;;;;;24.80;10.10;;;;;;;;;;2033813;29;20060;-57
2024/01/09 04:13:07;;;;;;;25.67;9.73;;;;;;;;;;2033690;29;20115;-57
2024/01/09 04:14:07;;;;;;;18.90;9.18;;;;;;;;;;2034243;29;20032;-57
2024/01/09 04:15:08;;;;;;;25.67;11.07;;;;;;;;;;2034225;29;20040;-57
2024/01/09 04:16:10;;;;;;;25.77;10.00;;;;;;;;;;2034269;29;20036;-57
2024/01/09 04:17:11;;;;;;;27.00;9.15;;;;;;;;;;2033542;29;20052;-57
2024/01/09 04:18:12;;;;;;;21.30;8.32;;;;;;;;;;2034261;29;20044;-57
2024/01/09 04:19:13;;;;;;;30.00;13.35;;;;;;;;;;2034268;29;20036;-57
2024/01/09 04:20:15;;;;;;;23.55;12.15;;;;;;;;;;2033978;29;20079;-57
2024/01/09 04:21:15;;;;;;;16.40;6.50;;;;;;;;;;2034392;29;20032;-57
2024/01/09 04:22:16;;;;;;;24.02;10.45;;;;;;;;;;2034581;29;20036;-57
2024/01/09 04:23:17;;;;;;;25.27;9.25;;;;;;;;;;2033617;29;20043;-57
2024/01/09 04:24:17;;;;;;;23.33;10.20;;;;;;;;;;2034132;29;20044;-57
2024/01/09 04:25:18;;;;;;;25.60;11.23;;;;;;;;;;2034032;29;20086;-57
2024/01/09 04:26:19;;;;;;;26.25;11.20;;;;;;;;;;2034366;29;20028;-57
2024/01/09 04:27:20;;;;;;;21.02;9.55;;;;;;;;;;2034253;29;20031;-57
2024/01/09 04:28:20;;;;;;;30.23;12.38;;;;;;;;;;2033469;29;20378;-57
2024/01/09 04:29:21;;;;;;;28.83;11.85;;;;;;;;;;2034200;29;20072;-58
2024/01/09 04:30:22;;;;;;;31.45;11.80;;;;;;;;;;2034145;29;20043;-57
2024/01/09 04:31:25;;;;;;;20.25;8.82;;;;;;;;;;2033791;29;20044;-57
2024/01/09 04:32:26;;;;;;;21.13;8.45;;;;;;;;;;2034147;29;20051;-57
2024/01/09 04:33:27;;;;;;;23.33;10.05;;;;;;;;;;2033578;29;20059;-57
2024/01/09 04:34:28;;;;;;;26.00;10.20;;;;;;;;;;2034273;29;20392;-57
2024/01/09 04:35:29;;;;;;;27.38;12.10;;;;;;;;;;2025764;29;20039;-57
2024/01/09 04:36:29;;;;;;;28.00;10.73;;;;;;;;;;2025701;29;20035;-57
2024/01/09 04:37:30;;;;;;;22.70;11.35;;;;;;;;;;2034375;29;20032;-57
2024/01/09 04:38:31;;;;;;;23.00;9.77;;;;;;;;;;2034168;29;20031;-57
2024/01/09 04:39:31;;;;;;;26.50;11.48;;;;;;;;;;2034154;29;20036;-56
2024/01/09 04:40:32;;;;;;;23.80;9.10;;;;;;;;;;2034394;29;20039;-57
2024/01/09 04:41:33;;;;;;;22.13;9.20;;;;;;;;;;2034340;29;20040;-57
2024/01/09 04:42:34;;;;;;;27.48;11.93;;;;;;;;;;2034081;29;20408;-57
2024/01/09 04:43:35;;;;;;;24.88;8.73;;;;;;;;;;2034021;29;20024;-57
2024/01/09 04:44:36;;;;;;;19.67;8.60;;;;;;;;;;2033267;29;20484;-57
2024/01/09 04:45:37;;;;;;;16.67;7.50;;;;;;;;;;2034226;29;20036;-57
2024/01/09 04:46:37;;;;;;;20.15;8.93;;;;;;;;;;2033643;29;20074;-58
2024/01/09 04:47:38;;;;;;;26.38;11.95;;;;;;;;;;2034108;29;20047;-57
2024/01/09 04:48:39;;;;;;;26.45;10.77;;;;;;;;;;2034103;29;20040;-57
2024/01/09 04:49:40;;;;;;;19.25;8.38;;;;;;;;;;2034204;29;20413;-57
2024/01/09 04:50:40;;;;;;;23.33;10.38;;;;;;;;;;2034130;29;20473;-57
2024/01/09 04:51:41;;;;;;;16.85;7.38;;;;;;;;;;2025595;29;20040;-57
2024/01/09 04:52:42;;;;;;;33.33;14.38;;;;;;;;;;2025819;29;20420;-57
2024/01/09 04:53:42;;;;;;;25.02;10.95;;;;;;;;;;2033248;29;20044;-57
2024/01/09 04:54:43;;;;;;;24.83;10.40;;;;;;;;;;2034031;29;20059;-57
2024/01/09 04:55:44;;;;;;;25.00;11.35;;;;;;;;;;2034236;29;20036;-57
2024/01/09 04:56:45;;;;;;;19.38;7.40;;;;;;;;;;2033653;29;20048;-57
2024/01/09 04:57:45;;;;;;;26.45;11.00;;;;;;;;;;2034103;29;20055;-57
2024/01/09 04:58:46;;;;;;;31.33;12.43;;;;;;;;;;2034012;29;20043;-57
2024/01/09 04:59:48;;;;;;;27.23;10.93;;;;;;;;;;2034055;29;20127;-57
2024/01/09 05:00:48;;;;;;;26.52;11.05;;;;;;;;;;2034492;29;20036;-57
2024/01/09 05:01:49;;;;;;;21.95;8.25;;;;;;;;;;2034065;29;20036;-57
2024/01/09 05:02:52;;;;;;;21.80;8.23;;;;;;;;;;2034073;29;20040;-57
2024/01/09 05:03:53;;;;;;;24.70;9.77;;;;;;;;;;2033522;29;20048;-57
2024/01/09 05:04:54;;;;;;;25.17;9.23;;;;;;;;;;2033385;29;20036;-57
2024/01/09 05:05:54;;;;;;;21.50;9.75;;;;;;;;;;2034073;29;20051;-57
2024/01/09 05:06:55;;;;;;;28.70;11.68;;;;;;;;;;2033949;29;20044;-57
2024/01/09 05:07:56;;;;;;;30.15;12.30;;;;;;;;;;2033879;29;20092;-57
2024/01/09 05:08:57;;;;;;;17.30;7.93;;;;;;;;;;2033955;29;20036;-57
2024/01/09 05:09:57;;;;;;;30.33;11.68;;;;;;;;;;2024913;29;20051;-57
2024/01/09 05:10:58;;;;;;;22.35;9.27;;;;;;;;;;2025397;29;20044;-57
2024/01/09 05:11:59;;;;;;;30.30;10.88;;;;;;;;;;2033985;29;20036;-57
2024/01/09 05:12:59;;;;;;;20.63;8.25;;;;;;;;;;2033891;29;20465;-57
2024/01/09 05:14:00;;;;;;;27.98;13.27;;;;;;;;;;2033915;29;20420;-57
2024/01/09 05:15:01;;;;;;;21.77;8.63;;;;;;;;;;2033690;29;20079;-57
2024/01/09 05:16:02;;;;;;;36.05;13.70;;;;;;;;;;2034003;29;20040;-57
2024/01/09 05:17:03;;;;;;;25.50;11.27;;;;;;;;;;2033247;29;20055;-57
2024/01/09 05:18:03;;;;;;;25.63;11.10;;;;;;;;;;2033656;29;20078;-57
2024/01/09 05:19:04;;;;;;;25.40;9.02;;;;;;;;;;2034094;29;20051;-57
2024/01/09 05:20:06;;;;;;;25.70;9.63;;;;;;;;;;2033858;29;20521;-57
2024/01/09 05:21:06;;;;;;;37.22;14.68;;;;;;;;;;2033806;29;20055;-57
2024/01/09 05:22:07;;;;;;;20.55;7.10;;;;;;;;;;2034012;29;20047;-57
2024/01/09 05:23:08;;;;;;;24.20;8.77;;;;;;;;;;2033808;29;20048;-57
2024/01/09 05:24:08;;;;;;;24.95;9.15;;;;;;;;;;2033841;29;20052;-58
2024/01/09 05:25:09;;;;;;;31.75;11.55;;;;;;;;;;2033895;29;20036;-57
2024/01/09 05:26:10;;;;;;;29.70;12.85;;;;;;;;;;2033478;29;20515;-57
2024/01/09 05:27:11;;;;;;;25.33;9.75;;;;;;;;;;2034094;29;20036;-57
2024/01/09 05:28:11;;;;;;;20.75;8.20;;;;;;;;;;2034170;29;20039;-58
2024/01/09 05:29:12;;;;;;;31.02;13.40;;;;;;;;;;2033931;29;20052;-57
2024/01/09 05:30:13;;;;;;;19.95;7.22;;;;;;;;;;2034145;29;20072;-58
2024/01/09 05:31:14;;;;;;;24.85;7.75;;;;;;;;;;2033877;29;20131;-57
2024/01/09 05:32:14;;;;;;;21.25;8.15;;;;;;;;;;2034996;29;20091;-58
2024/01/09 05:33:15;;;;;;;20.88;9.07;;;;;;;;;;2036561;29;20036;-57
2024/01/09 05:34:16;;;;;;;28.25;13.27;;;;;;;;;;2036568;29;20043;-60
2024/01/09 05:35:17;;;;;;;25.10;10.43;;;;;;;;;;2036991;29;20039;-57
2024/01/09 05:36:22;;;;;;;18.92;6.65;;;;;;;;;;2038218;29;20028;-62
2024/01/09 05:37:22;;;;;;;22.10;9.60;;;;;;;;;;2038338;29;20050;-58
2024/01/09 05:38:23;;;;;;;17.20;8.20;;;;;;;;;;2037574;29;20055;-57
2024/01/09 05:39:24;;;;;;;22.08;9.23;;;;;;;;;;2037790;29;20040;-58
2024/01/09 05:40:25;;;;;;;26.13;9.98;;;;;;;;;;2037665;29;20440;-57
2024/01/09 05:41:26;;;;;;;23.63;10.85;;;;;;;;;;2036414;29;20040;-57
2024/01/09 05:42:26;;;;;;;27.92;9.35;;;;;;;;;;2027424;29;20136;-56
2024/01/09 05:43:27;;;;;;;26.42;10.70;;;;;;;;;;2020228;29;20060;-57
2024/01/09 05:44:28;;;;;;;19.42;8.95;;;;;;;;;;2028127;29;20049;-57
2024/01/09 05:45:28;;;;;;;22.67;8.07;;;;;;;;;;2036515;29;20040;-57
2024/01/09 05:46:29;;;;;;;21.20;9.43;;;;;;;;;;2036533;29;20152;-57
2024/01/09 05:47:30;;;;;;;16.55;7.95;;;;;;;;;;2036479;29;20477;-57
2024/01/09 05:48:31;;;;;;;26.50;11.35;;;;;;;;;;2035604;29;20171;-57
2024/01/09 05:49:31;;;;;;;22.75;10.10;;;;;;;;;;2036360;29;20472;-57
2024/01/09 05:50:32;;;;;;;16.58;7.00;;;;;;;;;;2036179;29;20044;-57
2024/01/09 05:51:33;;;;;;;19.77;7.93;;;;;;;;;;2036354;29;20504;-57
2024/01/09 05:52:34;;;;;;;30.25;10.60;;;;;;;;;;2036484;29;20036;-57
2024/01/09 05:53:36;;;;;;;28.90;12.48;;;;;;;;;;2036428;29;20027;-57
2024/01/09 05:54:36;;;;;;;20.95;10.05;;;;;;;;;;2036476;29;20040;-57
2024/01/09 05:55:37;;;;;;;17.67;8.23;;;;;;;;;;2036613;29;20489;-57
2024/01/09 05:56:38;;;;;;;21.02;6.95;;;;;;;;;;2036425;29;20048;-57